Terminal Aerodrome Forecast
Issued by NWS

Home | Current Version | Previous Version | Text Only | Print | Product List | Glossary On
Versions: 1 2 3 4 5 6 7 8 9 10 11 12 13 14 15 16 17 18 19 20 21 22 23 24 25 26 27 28 29 30 31 32 33 34 35 36 37 38 39 40
000
FTUS43 KDDC 241825 AAA
TAFHYS
TAF AMD
KHYS 241825Z 2418/2518 35017KT P6SM -SHSN BKN023 OVC030
      TEMPO 2418/2421 5SM -SHSN OVC020
     FM250000 36010G20KT P6SM BKN050
     FM250600 30006KT P6SM SCT200
     FM251200 27006KT P6SM SCT100
     FM251500 22009KT P6SM SCT100=

USA.gov is the U.S. government's official web portal to all federal, state and local government web resources and services.